X  Close Metar Aviation Weather Data     KBNA Nashville International Airport
Temperature
79°F Temperature
61°F Dewpoint
54% Humidity



Wind
8 MPH
13 KM/H
4 M/S
7 KTS



200°
SSW
Current Conditions

Mostly Scattered Clouds Mostly Scattered Clouds
Pressure 1014.56 (hPa) - 29.96 (inHg)
Visibility 10 (mile) - 16.1 (km)
Airport
Airport-code KBNA

Location: Nashville International Airport
Distance: 28 (mi)

Metar:
KBNA 172253Z 20007KT 10SM SCT050 BKN250 26/16 A2996 RMK AO2 SLP138 T02610161

Time: 04-17-2024 10:53 pm CDT